sensor_id;sensor_type;location;lat;lon;timestamp;temperature;humidity
5196;DHT22;2617;51.006;12.436;2023-02-04T00:01:40;4.30;99.90
5196;DHT22;2617;51.006;12.436;2023-02-04T00:06:42;4.30;99.90
5196;DHT22;2617;51.006;12.436;2023-02-04T00:11:45;4.30;99.90
5196;DHT22;2617;51.006;12.436;2023-02-04T00:16:47;4.40;99.90
5196;DHT22;2617;51.006;12.436;2023-02-04T00:21:49;4.50;99.90
5196;DHT22;2617;51.006;12.436;2023-02-04T00:26:52;4.60;99.90
5196;DHT22;2617;51.006;12.436;2023-02-04T00:31:54;4.60;99.90
5196;DHT22;2617;51.006;12.436;2023-02-04T00:36:57;3.90;99.90
5196;DHT22;2617;51.006;12.436;2023-02-04T00:41:59;3.20;99.90
5196;DHT22;2617;51.006;12.436;2023-02-04T00:47:01;2.90;99.90
5196;DHT22;2617;51.006;12.436;2023-02-04T00:52:04;2.60;99.90
5196;DHT22;2617;51.006;12.436;2023-02-04T00:57:07;2.50;99.90
5196;DHT22;2617;51.006;12.436;2023-02-04T01:02:09;2.40;99.90
5196;DHT22;2617;51.006;12.436;2023-02-04T01:07:12;2.40;99.90
5196;DHT22;2617;51.006;12.436;2023-02-04T01:12:15;2.30;99.90
5196;DHT22;2617;51.006;12.436;2023-02-04T01:17:18;2.30;99.90
5196;DHT22;2617;51.006;12.436;2023-02-04T01:22:21;2.30;99.90
5196;DHT22;2617;51.006;12.436;2023-02-04T01:27:23;2.30;99.90
5196;DHT22;2617;51.006;12.436;2023-02-04T01:32:26;2.30;99.90
5196;DHT22;2617;51.006;12.436;2023-02-04T01:37:28;2.30;99.90
5196;DHT22;2617;51.006;12.436;2023-02-04T01:42:31;2.20;99.90
5196;DHT22;2617;51.006;12.436;2023-02-04T01:47:34;2.20;99.90
5196;DHT22;2617;51.006;12.436;2023-02-04T01:52:36;2.20;99.90
5196;DHT22;2617;51.006;12.436;2023-02-04T01:57:38;2.20;99.90
5196;DHT22;2617;51.006;12.436;2023-02-04T02:02:44;2.20;99.90
5196;DHT22;2617;51.006;12.436;2023-02-04T02:07:45;2.30;99.90
5196;DHT22;2617;51.006;12.436;2023-02-04T02:12:48;2.30;99.90
5196;DHT22;2617;51.006;12.436;2023-02-04T02:17:51;2.40;99.90
5196;DHT22;2617;51.006;12.436;2023-02-04T02:23:13;2.40;99.90
5196;DHT22;2617;51.006;12.436;2023-02-04T02:28:20;2.40;99.90
5196;DHT22;2617;51.006;12.436;2023-02-04T02:33:21;2.30;99.90
5196;DHT22;2617;51.006;12.436;2023-02-04T02:38:24;2.30;99.90
5196;DHT22;2617;51.006;12.436;2023-02-04T02:43:26;2.20;99.90
5196;DHT22;2617;51.006;12.436;2023-02-04T02:48:28;2.20;99.90
5196;DHT22;2617;51.006;12.436;2023-02-04T02:53:31;2.20;99.90
5196;DHT22;2617;51.006;12.436;2023-02-04T02:58:33;2.10;99.90
5196;DHT22;2617;51.006;12.436;2023-02-04T03:03:41;2.00;99.90
5196;DHT22;2617;51.006;12.436;2023-02-04T03:08:51;1.90;99.90
5196;DHT22;2617;51.006;12.436;2023-02-04T03:13:54;1.90;99.90
5196;DHT22;2617;51.006;12.436;2023-02-04T03:18:56;1.90;99.90
5196;DHT22;2617;51.006;12.436;2023-02-04T03:23:59;1.90;99.90
5196;DHT22;2617;51.006;12.436;2023-02-04T03:29:04;1.90;99.90
5196;DHT22;2617;51.006;12.436;2023-02-04T03:34:04;1.90;99.90
5196;DHT22;2617;51.006;12.436;2023-02-04T03:39:06;1.80;99.90
5196;DHT22;2617;51.006;12.436;2023-02-04T03:44:09;1.80;99.90
5196;DHT22;2617;51.006;12.436;2023-02-04T03:49:11;1.90;99.90
5196;DHT22;2617;51.006;12.436;2023-02-04T03:54:14;1.80;99.90
5196;DHT22;2617;51.006;12.436;2023-02-04T03:59:17;1.80;99.90
5196;DHT22;2617;51.006;12.436;2023-02-04T04:04:20;1.80;99.90
5196;DHT22;2617;51.006;12.436;2023-02-04T04:09:22;1.80;99.90
5196;DHT22;2617;51.006;12.436;2023-02-04T04:14:26;1.70;99.90
5196;DHT22;2617;51.006;12.436;2023-02-04T04:19:28;1.70;99.90
5196;DHT22;2617;51.006;12.436;2023-02-04T04:24:30;1.70;99.90
5196;DHT22;2617;51.006;12.436;2023-02-04T04:29:33;1.70;99.90
5196;DHT22;2617;51.006;12.436;2023-02-04T04:34:35;1.70;99.90
5196;DHT22;2617;51.006;12.436;2023-02-04T04:39:38;1.60;99.90
5196;DHT22;2617;51.006;12.436;2023-02-04T04:44:40;1.50;99.90
5196;DHT22;2617;51.006;12.436;2023-02-04T04:49:42;1.40;99.90
5196;DHT22;2617;51.006;12.436;2023-02-04T04:54:45;1.30;99.90
5196;DHT22;2617;51.006;12.436;2023-02-04T04:59:48;1.20;99.90
5196;DHT22;2617;51.006;12.436;2023-02-04T05:04:51;1.20;99.90
5196;DHT22;2617;51.006;12.436;2023-02-04T05:09:53;1.10;99.90
5196;DHT22;2617;51.006;12.436;2023-02-04T05:14:55;1.00;99.90
5196;DHT22;2617;51.006;12.436;2023-02-04T05:19:58;1.00;99.90
5196;DHT22;2617;51.006;12.436;2023-02-04T05:25:01;0.80;99.90
5196;DHT22;2617;51.006;12.436;2023-02-04T05:30:04;0.80;99.90
5196;DHT22;2617;51.006;12.436;2023-02-04T05:35:07;0.80;99.90
5196;DHT22;2617;51.006;12.436;2023-02-04T05:40:11;0.70;99.90
5196;DHT22;2617;51.006;12.436;2023-02-04T05:45:14;0.70;99.90
5196;DHT22;2617;51.006;12.436;2023-02-04T05:50:16;0.60;99.90
5196;DHT22;2617;51.006;12.436;2023-02-04T05:55:19;0.60;99.90
5196;DHT22;2617;51.006;12.436;2023-02-04T06:00:22;0.50;99.90
5196;DHT22;2617;51.006;12.436;2023-02-04T06:05:25;0.60;99.90
5196;DHT22;2617;51.006;12.436;2023-02-04T06:10:27;0.60;99.90
5196;DHT22;2617;51.006;12.436;2023-02-04T06:15:30;0.60;99.90
5196;DHT22;2617;51.006;12.436;2023-02-04T06:20:32;0.70;99.90
5196;DHT22;2617;51.006;12.436;2023-02-04T06:25:34;0.70;99.90
5196;DHT22;2617;51.006;12.436;2023-02-04T06:30:37;0.70;99.90
5196;DHT22;2617;51.006;12.436;2023-02-04T06:35:39;0.70;99.90
5196;DHT22;2617;51.006;12.436;2023-02-04T06:40:42;0.60;99.90
5196;DHT22;2617;51.006;12.436;2023-02-04T06:45:44;0.50;99.90
5196;DHT22;2617;51.006;12.436;2023-02-04T06:50:46;0.40;99.90
5196;DHT22;2617;51.006;12.436;2023-02-04T06:55:49;0.40;99.90
5196;DHT22;2617;51.006;12.436;2023-02-04T07:00:52;0.30;99.90
5196;DHT22;2617;51.006;12.436;2023-02-04T07:05:56;0.20;99.90
5196;DHT22;2617;51.006;12.436;2023-02-04T07:10:59;0.10;99.90
5196;DHT22;2617;51.006;12.436;2023-02-04T07:16:01;0.00;99.90
5196;DHT22;2617;51.006;12.436;2023-02-04T07:21:04;0.00;99.90
5196;DHT22;2617;51.006;12.436;2023-02-04T07:26:06;0.00;99.90
5196;DHT22;2617;51.006;12.436;2023-02-04T07:31:09;0.00;99.90
5196;DHT22;2617;51.006;12.436;2023-02-04T07:36:11;0.10;99.90
5196;DHT22;2617;51.006;12.436;2023-02-04T07:41:14;0.20;99.90
5196;DHT22;2617;51.006;12.436;2023-02-04T07:46:17;0.30;99.90
5196;DHT22;2617;51.006;12.436;2023-02-04T07:51:19;0.30;99.90
5196;DHT22;2617;51.006;12.436;2023-02-04T07:56:22;0.40;99.90
5196;DHT22;2617;51.006;12.436;2023-02-04T08:01:25;0.70;99.90
5196;DHT22;2617;51.006;12.436;2023-02-04T08:06:28;0.60;99.90
5196;DHT22;2617;51.006;12.436;2023-02-04T08:11:30;0.80;99.90
5196;DHT22;2617;51.006;12.436;2023-02-04T08:16:33;1.10;99.90
5196;DHT22;2617;51.006;12.436;2023-02-04T08:21:36;1.10;99.90
5196;DHT22;2617;51.006;12.436;2023-02-04T08:26:38;1.30;99.90
5196;DHT22;2617;51.006;12.436;2023-02-04T08:31:40;1.40;99.90
5196;DHT22;2617;51.006;12.436;2023-02-04T08:36:43;1.70;99.90
5196;DHT22;2617;51.006;12.436;2023-02-04T08:41:45;2.00;99.90
5196;DHT22;2617;51.006;12.436;2023-02-04T08:46:48;2.30;99.90
5196;DHT22;2617;51.006;12.436;2023-02-04T08:51:50;2.50;99.90
5196;DHT22;2617;51.006;12.436;2023-02-04T08:56:54;2.50;99.90
5196;DHT22;2617;51.006;12.436;2023-02-04T09:01:56;2.60;99.90
5196;DHT22;2617;51.006;12.436;2023-02-04T09:06:59;2.40;99.90
5196;DHT22;2617;51.006;12.436;2023-02-04T09:12:01;2.10;99.90
5196;DHT22;2617;51.006;12.436;2023-02-04T09:17:04;2.20;99.90
5196;DHT22;2617;51.006;12.436;2023-02-04T09:22:07;2.20;99.90
5196;DHT22;2617;51.006;12.436;2023-02-04T09:27:09;2.40;99.90
5196;DHT22;2617;51.006;12.436;2023-02-04T09:32:12;2.50;99.90
5196;DHT22;2617;51.006;12.436;2023-02-04T09:37:14;3.00;99.90
5196;DHT22;2617;51.006;12.436;2023-02-04T09:42:16;3.20;99.90
5196;DHT22;2617;51.006;12.436;2023-02-04T09:47:21;2.80;99.90
5196;DHT22;2617;51.006;12.436;2023-02-04T09:52:23;2.60;99.90
5196;DHT22;2617;51.006;12.436;2023-02-04T09:57:26;2.60;99.90
5196;DHT22;2617;51.006;12.436;2023-02-04T10:02:29;2.40;99.90
5196;DHT22;2617;51.006;12.436;2023-02-04T10:07:31;2.40;99.90
5196;DHT22;2617;51.006;12.436;2023-02-04T10:12:34;2.40;99.90
5196;DHT22;2617;51.006;12.436;2023-02-04T10:17:37;2.40;99.90
5196;DHT22;2617;51.006;12.436;2023-02-04T10:22:39;2.70;99.90
5196;DHT22;2617;51.006;12.436;2023-02-04T10:27:50;2.90;99.90
5196;DHT22;2617;51.006;12.436;2023-02-04T10:32:53;3.10;99.90
5196;DHT22;2617;51.006;12.436;2023-02-04T10:38:02;3.60;99.90
5196;DHT22;2617;51.006;12.436;2023-02-04T10:43:16;3.90;99.90
5196;DHT22;2617;51.006;12.436;2023-02-04T10:48:18;3.70;99.90
5196;DHT22;2617;51.006;12.436;2023-02-04T10:53:21;3.40;99.90
5196;DHT22;2617;51.006;12.436;2023-02-04T10:58:29;3.40;99.90
5196;DHT22;2617;51.006;12.436;2023-02-04T11:03:31;3.40;99.90
5196;DHT22;2617;51.006;12.436;2023-02-04T11:08:35;3.50;99.90
5196;DHT22;2617;51.006;12.436;2023-02-04T11:13:42;3.90;99.90
5196;DHT22;2617;51.006;12.436;2023-02-04T11:18:44;4.40;99.90
5196;DHT22;2617;51.006;12.436;2023-02-04T11:23:47;4.10;99.90
5196;DHT22;2617;51.006;12.436;2023-02-04T11:29:08;4.10;99.90
5196;DHT22;2617;51.006;12.436;2023-02-04T11:34:27;3.90;99.90
5196;DHT22;2617;51.006;12.436;2023-02-04T11:39:33;3.80;99.90
5196;DHT22;2617;51.006;12.436;2023-02-04T11:44:36;3.70;99.90
5196;DHT22;2617;51.006;12.436;2023-02-04T11:49:38;3.70;99.90
5196;DHT22;2617;51.006;12.436;2023-02-04T11:54:41;4.50;99.90
5196;DHT22;2617;51.006;12.436;2023-02-04T11:59:44;4.50;99.90
5196;DHT22;2617;51.006;12.436;2023-02-04T12:04:56;4.70;99.90
5196;DHT22;2617;51.006;12.436;2023-02-04T12:10:08;4.10;99.90
5196;DHT22;2617;51.006;12.436;2023-02-04T12:15:03;4.00;99.90
5196;DHT22;2617;51.006;12.436;2023-02-04T12:20:04;4.20;99.90
5196;DHT22;2617;51.006;12.436;2023-02-04T12:25:07;4.20;99.90
5196;DHT22;2617;51.006;12.436;2023-02-04T12:30:10;4.40;99.90
5196;DHT22;2617;51.006;12.436;2023-02-04T12:35:14;4.60;99.90
5196;DHT22;2617;51.006;12.436;2023-02-04T12:40:17;4.60;99.90
5196;DHT22;2617;51.006;12.436;2023-02-04T12:45:20;4.00;99.90
5196;DHT22;2617;51.006;12.436;2023-02-04T12:50:23;4.00;99.90
5196;DHT22;2617;51.006;12.436;2023-02-04T12:55:27;4.40;99.90
5196;DHT22;2617;51.006;12.436;2023-02-04T13:00:29;4.40;99.90
5196;DHT22;2617;51.006;12.436;2023-02-04T13:05:32;4.50;99.90
5196;DHT22;2617;51.006;12.436;2023-02-04T13:10:34;4.50;99.90
5196;DHT22;2617;51.006;12.436;2023-02-04T13:15:37;4.50;99.90
5196;DHT22;2617;51.006;12.436;2023-02-04T13:20:39;4.60;99.90
5196;DHT22;2617;51.006;12.436;2023-02-04T13:25:42;4.70;99.90
5196;DHT22;2617;51.006;12.436;2023-02-04T13:30:44;4.60;99.90
5196;DHT22;2617;51.006;12.436;2023-02-04T13:35:46;4.40;99.90
5196;DHT22;2617;51.006;12.436;2023-02-04T13:40:49;4.40;99.90
5196;DHT22;2617;51.006;12.436;2023-02-04T13:45:51;4.40;99.90
5196;DHT22;2617;51.006;12.436;2023-02-04T13:50:54;4.70;99.90
5196;DHT22;2617;51.006;12.436;2023-02-04T13:55:58;4.70;99.90
5196;DHT22;2617;51.006;12.436;2023-02-04T14:01:00;4.80;99.90
5196;DHT22;2617;51.006;12.436;2023-02-04T14:06:03;4.50;99.90
5196;DHT22;2617;51.006;12.436;2023-02-04T14:11:07;3.70;99.90
5196;DHT22;2617;51.006;12.436;2023-02-04T14:16:09;3.60;99.90
5196;DHT22;2617;51.006;12.436;2023-02-04T14:21:11;3.50;99.90
5196;DHT22;2617;51.006;12.436;2023-02-04T14:26:14;3.40;99.90
5196;DHT22;2617;51.006;12.436;2023-02-04T14:31:17;3.50;99.90
5196;DHT22;2617;51.006;12.436;2023-02-04T14:36:19;3.70;99.90
5196;DHT22;2617;51.006;12.436;2023-02-04T14:41:21;3.80;99.90
5196;DHT22;2617;51.006;12.436;2023-02-04T14:46:24;3.80;99.90
5196;DHT22;2617;51.006;12.436;2023-02-04T14:51:26;3.70;99.90
5196;DHT22;2617;51.006;12.436;2023-02-04T14:56:29;3.70;99.90
5196;DHT22;2617;51.006;12.436;2023-02-04T15:01:31;3.60;99.90
5196;DHT22;2617;51.006;12.436;2023-02-04T15:06:34;3.50;99.90
5196;DHT22;2617;51.006;12.436;2023-02-04T15:11:37;3.10;99.90
5196;DHT22;2617;51.006;12.436;2023-02-04T15:16:40;2.90;99.90
5196;DHT22;2617;51.006;12.436;2023-02-04T15:21:43;2.90;99.90
5196;DHT22;2617;51.006;12.436;2023-02-04T15:26:45;2.70;99.90
5196;DHT22;2617;51.006;12.436;2023-02-04T15:31:48;2.40;99.90
5196;DHT22;2617;51.006;12.436;2023-02-04T15:36:51;2.40;99.90
5196;DHT22;2617;51.006;12.436;2023-02-04T15:41:53;2.20;99.90
5196;DHT22;2617;51.006;12.436;2023-02-04T15:46:55;2.00;99.90
5196;DHT22;2617;51.006;12.436;2023-02-04T15:51:58;1.90;99.90
5196;DHT22;2617;51.006;12.436;2023-02-04T15:57:00;1.70;99.90
5196;DHT22;2617;51.006;12.436;2023-02-04T16:02:03;1.60;99.90
5196;DHT22;2617;51.006;12.436;2023-02-04T16:07:05;1.40;99.90
5196;DHT22;2617;51.006;12.436;2023-02-04T16:12:07;1.20;99.90
5196;DHT22;2617;51.006;12.436;2023-02-04T16:17:10;1.10;99.90
5196;DHT22;2617;51.006;12.436;2023-02-04T16:22:12;1.00;99.90
5196;DHT22;2617;51.006;12.436;2023-02-04T16:27:15;0.90;99.90
5196;DHT22;2617;51.006;12.436;2023-02-04T16:32:17;0.80;99.90
5196;DHT22;2617;51.006;12.436;2023-02-04T16:37:20;0.80;99.90
5196;DHT22;2617;51.006;12.436;2023-02-04T16:42:22;0.70;99.90
5196;DHT22;2617;51.006;12.436;2023-02-04T16:47:24;0.70;99.90
5196;DHT22;2617;51.006;12.436;2023-02-04T16:52:28;0.60;99.90
5196;DHT22;2617;51.006;12.436;2023-02-04T16:57:31;0.60;99.90
5196;DHT22;2617;51.006;12.436;2023-02-04T17:02:33;0.50;99.90
5196;DHT22;2617;51.006;12.436;2023-02-04T17:07:35;0.40;99.90
5196;DHT22;2617;51.006;12.436;2023-02-04T17:12:38;0.30;99.90
5196;DHT22;2617;51.006;12.436;2023-02-04T17:17:40;0.20;99.90
5196;DHT22;2617;51.006;12.436;2023-02-04T17:22:43;0.00;99.90
5196;DHT22;2617;51.006;12.436;2023-02-04T17:27:45;-0.20;99.90
5196;DHT22;2617;51.006;12.436;2023-02-04T17:32:47;-0.40;99.90
5196;DHT22;2617;51.006;12.436;2023-02-04T17:37:50;-0.50;99.90
5196;DHT22;2617;51.006;12.436;2023-02-04T17:42:53;-0.80;99.90
5196;DHT22;2617;51.006;12.436;2023-02-04T17:47:56;-1.00;99.90
5196;DHT22;2617;51.006;12.436;2023-02-04T17:52:59;-1.00;99.90
5196;DHT22;2617;51.006;12.436;2023-02-04T18:03:22;-1.10;99.90
5196;DHT22;2617;51.006;12.436;2023-02-04T18:08:24;-1.20;99.90
5196;DHT22;2617;51.006;12.436;2023-02-04T18:13:30;-1.30;99.90
5196;DHT22;2617;51.006;12.436;2023-02-04T18:18:35;-1.30;99.90
5196;DHT22;2617;51.006;12.436;2023-02-04T18:23:37;-1.30;99.90
5196;DHT22;2617;51.006;12.436;2023-02-04T18:28:39;-1.40;99.90
5196;DHT22;2617;51.006;12.436;2023-02-04T18:33:42;-1.50;99.90
5196;DHT22;2617;51.006;12.436;2023-02-04T18:38:44;-1.60;99.90
5196;DHT22;2617;51.006;12.436;2023-02-04T18:43:48;-1.70;99.90
5196;DHT22;2617;51.006;12.436;2023-02-04T18:49:16;-1.80;99.90
5196;DHT22;2617;51.006;12.436;2023-02-04T18:54:23;-1.80;99.90
5196;DHT22;2617;51.006;12.436;2023-02-04T18:59:25;-1.80;99.90
5196;DHT22;2617;51.006;12.436;2023-02-04T19:04:28;-1.90;99.90
5196;DHT22;2617;51.006;12.436;2023-02-04T19:09:30;-1.90;99.90
5196;DHT22;2617;51.006;12.436;2023-02-04T19:14:36;-2.00;99.90
5196;DHT22;2617;51.006;12.436;2023-02-04T19:19:39;-2.00;99.90
5196;DHT22;2617;51.006;12.436;2023-02-04T19:24:41;-1.90;99.90
5196;DHT22;2617;51.006;12.436;2023-02-04T19:29:43;-1.90;99.90
5196;DHT22;2617;51.006;12.436;2023-02-04T19:34:46;-1.90;99.90
5196;DHT22;2617;51.006;12.436;2023-02-04T19:39:50;-2.10;99.90
5196;DHT22;2617;51.006;12.436;2023-02-04T19:44:51;-2.10;99.90
5196;DHT22;2617;51.006;12.436;2023-02-04T19:50:00;-2.10;99.90
5196;DHT22;2617;51.006;12.436;2023-02-04T19:55:21;-2.10;99.90
5196;DHT22;2617;51.006;12.436;2023-02-04T20:00:37;-2.10;99.90
5196;DHT22;2617;51.006;12.436;2023-02-04T20:05:38;-2.10;99.90
5196;DHT22;2617;51.006;12.436;2023-02-04T20:10:40;-2.00;99.90
5196;DHT22;2617;51.006;12.436;2023-02-04T20:15:43;-1.90;99.90
5196;DHT22;2617;51.006;12.436;2023-02-04T20:20:45;-1.80;99.90
5196;DHT22;2617;51.006;12.436;2023-02-04T20:25:47;-1.90;99.90
5196;DHT22;2617;51.006;12.436;2023-02-04T20:30:50;-1.90;99.90
5196;DHT22;2617;51.006;12.436;2023-02-04T20:41:28;-1.70;99.90
5196;DHT22;2617;51.006;12.436;2023-02-04T20:46:31;-1.60;99.90
5196;DHT22;2617;51.006;12.436;2023-02-04T20:51:33;-1.50;99.90
5196;DHT22;2617;51.006;12.436;2023-02-04T20:56:36;-1.50;99.90
5196;DHT22;2617;51.006;12.436;2023-02-04T21:01:39;-1.40;99.90
5196;DHT22;2617;51.006;12.436;2023-02-04T21:06:43;-1.20;99.90
5196;DHT22;2617;51.006;12.436;2023-02-04T21:11:45;-1.10;99.90
5196;DHT22;2617;51.006;12.436;2023-02-04T21:16:47;-1.10;99.90
5196;DHT22;2617;51.006;12.436;2023-02-04T21:21:50;-1.10;99.90
5196;DHT22;2617;51.006;12.436;2023-02-04T21:26:53;-1.20;99.90
5196;DHT22;2617;51.006;12.436;2023-02-04T21:31:56;-1.40;99.90
5196;DHT22;2617;51.006;12.436;2023-02-04T21:36:58;-1.40;99.90
5196;DHT22;2617;51.006;12.436;2023-02-04T21:42:02;-1.50;99.90
5196;DHT22;2617;51.006;12.436;2023-02-04T21:47:11;-1.60;99.90
5196;DHT22;2617;51.006;12.436;2023-02-04T21:52:14;-1.60;99.90
5196;DHT22;2617;51.006;12.436;2023-02-04T21:57:16;-1.60;99.90
5196;DHT22;2617;51.006;12.436;2023-02-04T22:02:19;-1.70;99.90
5196;DHT22;2617;51.006;12.436;2023-02-04T22:07:22;-1.70;99.90
5196;DHT22;2617;51.006;12.436;2023-02-04T22:12:24;-1.70;99.90
5196;DHT22;2617;51.006;12.436;2023-02-04T22:17:27;-1.80;99.90
5196;DHT22;2617;51.006;12.436;2023-02-04T22:22:29;-1.90;99.90
5196;DHT22;2617;51.006;12.436;2023-02-04T22:27:32;-2.00;99.90
5196;DHT22;2617;51.006;12.436;2023-02-04T22:32:36;-2.00;99.90
5196;DHT22;2617;51.006;12.436;2023-02-04T22:37:38;-2.00;99.90
5196;DHT22;2617;51.006;12.436;2023-02-04T22:42:40;-2.00;99.90
5196;DHT22;2617;51.006;12.436;2023-02-04T22:47:43;-2.00;99.90
5196;DHT22;2617;51.006;12.436;2023-02-04T22:52:45;-2.00;99.90
5196;DHT22;2617;51.006;12.436;2023-02-04T22:57:48;-2.00;99.90
5196;DHT22;2617;51.006;12.436;2023-02-04T23:02:50;-2.00;99.90
5196;DHT22;2617;51.006;12.436;2023-02-04T23:07:53;-1.90;99.90
5196;DHT22;2617;51.006;12.436;2023-02-04T23:12:56;-1.80;99.90
5196;DHT22;2617;51.006;12.436;2023-02-04T23:17:59;-1.90;99.90
5196;DHT22;2617;51.006;12.436;2023-02-04T23:23:01;-1.80;99.90
5196;DHT22;2617;51.006;12.436;2023-02-04T23:28:04;-1.80;99.90
5196;DHT22;2617;51.006;12.436;2023-02-04T23:33:07;-2.00;99.90
5196;DHT22;2617;51.006;12.436;2023-02-04T23:38:10;-2.10;99.90
5196;DHT22;2617;51.006;12.436;2023-02-04T23:43:14;-2.20;99.90
5196;DHT22;2617;51.006;12.436;2023-02-04T23:48:16;-2.20;99.90
5196;DHT22;2617;51.006;12.436;2023-02-04T23:53:18;-2.20;99.90
5196;DHT22;2617;51.006;12.436;2023-02-04T23:58:21;-2.20;99.90
